createdAt,value
2017-10-08T00:00:28.873Z,14.7
2017-10-08T00:01:29.610Z,15.0
2017-10-08T00:02:30.350Z,14.2
2017-10-08T00:03:31.172Z,15.0
2017-10-08T00:04:31.916Z,14.0
2017-10-08T00:05:32.717Z,14.2
2017-10-08T00:06:33.439Z,13.7
2017-10-08T00:07:34.202Z,14.8
2017-10-08T00:08:34.945Z,13.5
2017-10-08T00:09:35.744Z,14.7
2017-10-08T00:10:36.487Z,13.4
2017-10-08T00:11:37.257Z,14.2
2017-10-08T00:12:38.082Z,14.2
2017-10-08T00:13:38.798Z,14.1
2017-10-08T00:14:39.591Z,14.7
2017-10-08T00:15:40.367Z,14.2
2017-10-08T00:16:41.138Z,14.3
2017-10-08T00:17:41.977Z,14.7
2017-10-08T00:18:42.718Z,48.9
2017-10-08T00:19:43.521Z,33.3
2017-10-08T00:20:44.242Z,17.3
2017-10-08T00:21:44.959Z,14.3
2017-10-08T00:22:45.796Z,14.2
2017-10-08T00:23:46.588Z,14.7
2017-10-08T00:24:47.321Z,13.9
2017-10-08T00:25:48.054Z,13.8
2017-10-08T00:26:48.787Z,14.7
2017-10-08T00:27:49.948Z,14.7
2017-10-08T00:28:50.692Z,13.5
2017-10-08T00:29:51.460Z,13.2
2017-10-08T00:30:52.202Z,13.3
2017-10-08T00:31:52.920Z,13.0
2017-10-08T00:32:54.100Z,13.6
2017-10-08T00:33:54.893Z,13.0
2017-10-08T00:34:55.632Z,12.6
2017-10-08T00:35:56.444Z,13.3
2017-10-08T00:36:57.265Z,12.9
2017-10-08T00:37:58.342Z,13.3
2017-10-08T00:38:59.078Z,12.0
2017-10-08T00:39:59.871Z,12.4
2017-10-08T00:41:00.602Z,13.1
2017-10-08T00:42:01.342Z,12.5
2017-10-08T00:43:02.378Z,11.2
2017-10-08T00:44:03.195Z,11.2
2017-10-08T00:45:03.989Z,11.7
2017-10-08T00:46:04.720Z,10.8
2017-10-08T00:47:05.450Z,11.2
2017-10-08T00:48:06.579Z,11.3
2017-10-08T00:49:07.341Z,11.0
2017-10-08T00:50:08.064Z,10.9
2017-10-08T00:51:08.843Z,10.8
2017-10-08T00:52:09.571Z,11.5
2017-10-08T00:53:10.708Z,10.9
2017-10-08T00:54:11.442Z,10.5
2017-10-08T00:55:12.233Z,10.8
2017-10-08T00:56:12.958Z,11.4
2017-10-08T00:57:13.954Z,10.8
2017-10-08T00:58:15.530Z,12.4
2017-10-08T00:59:16.585Z,10.7
2017-10-08T01:00:17.396Z,10.3
2017-10-08T01:01:18.201Z,9.8
2017-10-08T01:02:19.798Z,10.9
2017-10-08T01:03:21.095Z,9.2
2017-10-08T01:04:22.023Z,9.7
2017-10-08T01:05:22.763Z,9.1
2017-10-08T01:06:23.583Z,9.6
2017-10-08T01:07:24.349Z,9.9
2017-10-08T01:08:25.981Z,10.0
2017-10-08T01:09:26.809Z,9.3
2017-10-08T01:10:27.691Z,9.4
2017-10-08T01:11:28.480Z,8.9
2017-10-08T01:12:29.614Z,9.1
2017-10-08T01:13:30.391Z,9.4
2017-10-08T01:14:31.107Z,8.9
2017-10-08T01:15:32.493Z,8.6
2017-10-08T01:16:34.875Z,9.1
2017-10-08T01:17:35.949Z,8.4
2017-10-08T01:18:36.689Z,8.8
2017-10-08T01:19:37.403Z,8.0
2017-10-08T01:20:38.191Z,8.8
2017-10-08T01:21:38.926Z,8.7
2017-10-08T01:22:39.971Z,8.7
2017-10-08T01:23:41.357Z,9.1
2017-10-08T01:24:42.356Z,9.0
2017-10-08T01:25:43.675Z,9.1
2017-10-08T01:26:45.501Z,8.3
2017-10-08T01:27:47.092Z,9.7
2017-10-08T01:28:48.861Z,9.0
2017-10-08T01:29:49.948Z,8.6
2017-10-08T01:30:50.825Z,8.3
2017-10-08T01:31:52.514Z,8.7
2017-10-08T01:32:54.276Z,9.3
2017-10-08T01:33:55.310Z,8.9
2017-10-08T01:34:56.098Z,9.2
2017-10-08T01:35:56.877Z,9.3
2017-10-08T01:36:57.611Z,9.0
2017-10-08T01:37:58.625Z,8.7
2017-10-08T01:38:59.364Z,9.1
2017-10-08T01:40:00.090Z,8.6
2017-10-08T01:41:00.830Z,9.5
2017-10-08T01:42:01.636Z,9.2
2017-10-08T01:43:02.527Z,9.8
2017-10-08T01:44:03.347Z,10.1
2017-10-08T01:45:04.134Z,9.8
2017-10-08T01:46:04.855Z,9.7
2017-10-08T01:47:05.578Z,9.6
2017-10-08T01:48:06.646Z,10.5
2017-10-08T01:49:07.421Z,9.5
2017-10-08T01:50:08.218Z,10.1
2017-10-08T01:51:08.944Z,10.3
2017-10-08T01:52:09.689Z,10.7
2017-10-08T01:53:10.763Z,10.3
2017-10-08T01:54:11.576Z,10.4
2017-10-08T01:55:12.303Z,10.4
2017-10-08T01:56:13.097Z,11.3
2017-10-08T01:57:13.831Z,11.9
2017-10-08T01:58:14.913Z,36.4
2017-10-08T01:59:15.720Z,18.4
2017-10-08T02:00:16.453Z,11.8
2017-10-08T02:01:17.183Z,11.0
2017-10-08T02:02:17.906Z,10.3
2017-10-08T02:03:18.687Z,11.1
2017-10-08T02:04:19.410Z,11.6
2017-10-08T02:05:20.153Z,11.2
2017-10-08T02:06:20.936Z,13.1
2017-10-08T02:07:21.653Z,11.7
2017-10-08T02:08:22.818Z,11.4
2017-10-08T02:09:23.592Z,10.6
2017-10-08T02:10:24.338Z,10.2
2017-10-08T02:11:25.071Z,10.1
2017-10-08T02:12:25.838Z,9.7
2017-10-08T02:13:26.812Z,10.1
2017-10-08T02:14:27.541Z,11.8
2017-10-08T02:15:28.262Z,9.7
2017-10-08T02:16:28.994Z,9.8
2017-10-08T02:17:29.830Z,10.6
2017-10-08T02:18:30.703Z,10.2
2017-10-08T02:19:31.518Z,10.6
2017-10-08T02:20:32.252Z,9.8
2017-10-08T02:21:32.982Z,10.0
2017-10-08T02:22:33.746Z,9.6
2017-10-08T02:23:34.842Z,10.2
2017-10-08T02:24:35.618Z,10.4
2017-10-08T02:25:36.353Z,9.6
2017-10-08T02:26:37.164Z,11.1
2017-10-08T02:27:37.959Z,9.3
2017-10-08T02:28:39.101Z,9.6
2017-10-08T02:29:39.891Z,10.4
2017-10-08T02:30:40.692Z,9.6
2017-10-08T02:31:41.426Z,10.0
2017-10-08T02:32:42.209Z,9.8
2017-10-08T02:33:43.325Z,10.0
2017-10-08T02:34:44.048Z,10.1
2017-10-08T02:35:44.785Z,9.0
2017-10-08T02:36:45.573Z,9.8
2017-10-08T02:37:46.300Z,9.8
2017-10-08T02:38:47.199Z,10.2
2017-10-08T02:39:47.922Z,9.7
2017-10-08T02:40:48.642Z,10.2
2017-10-08T02:41:49.382Z,9.4
2017-10-08T02:42:50.110Z,10.3
2017-10-08T02:43:51.255Z,9.5
2017-10-08T02:44:51.977Z,9.1
2017-10-08T02:45:52.702Z,10.3
2017-10-08T02:46:53.429Z,9.6
2017-10-08T02:47:54.166Z,9.4
2017-10-08T02:48:55.289Z,9.5
2017-10-08T02:49:56.008Z,9.3
2017-10-08T02:50:56.742Z,9.3
2017-10-08T02:51:57.472Z,9.5
2017-10-08T02:52:58.267Z,9.1
2017-10-08T02:53:59.091Z,8.8
2017-10-08T02:54:59.818Z,7.3
2017-10-08T02:56:00.563Z,7.8
2017-10-08T02:57:01.302Z,7.4
2017-10-08T02:58:02.101Z,8.4
2017-10-08T02:59:03.177Z,8.0
2017-10-08T03:00:03.948Z,7.0
2017-10-08T03:01:04.735Z,8.0
2017-10-08T03:02:05.508Z,7.9
2017-10-08T03:03:06.245Z,7.4
2017-10-08T03:04:07.352Z,8.3
2017-10-08T03:05:08.079Z,8.5
2017-10-08T03:06:08.872Z,7.7
2017-10-08T03:07:09.598Z,8.0
2017-10-08T03:08:10.256Z,7.4
2017-10-08T03:09:11.382Z,7.8
2017-10-08T03:10:12.104Z,8.5
2017-10-08T03:11:12.899Z,8.1
2017-10-08T03:12:13.711Z,7.9
2017-10-08T03:13:14.427Z,9.0
2017-10-08T03:14:15.449Z,8.7
2017-10-08T03:15:16.260Z,8.5
2017-10-08T03:16:16.930Z,7.5
2017-10-08T03:17:17.658Z,8.6
2017-10-08T03:18:18.476Z,7.5
2017-10-08T03:19:19.578Z,7.5
2017-10-08T03:20:20.310Z,8.2
2017-10-08T03:21:21.041Z,7.9
2017-10-08T03:22:21.774Z,7.7
2017-10-08T03:23:22.557Z,7.6
2017-10-08T03:24:23.627Z,8.7
2017-10-08T03:25:24.363Z,9.2
2017-10-08T03:26:25.138Z,8.8
2017-10-08T03:27:25.924Z,8.6
2017-10-08T03:28:26.725Z,9.3
2017-10-08T03:29:27.852Z,8.8
2017-10-08T03:30:28.659Z,8.9
2017-10-08T03:31:29.379Z,9.8
2017-10-08T03:32:30.113Z,8.9
2017-10-08T03:33:30.841Z,10.2
2017-10-08T03:34:31.978Z,9.3
2017-10-08T03:35:32.759Z,10.6
2017-10-08T03:36:33.490Z,10.4
2017-10-08T03:37:34.233Z,10.4
2017-10-08T03:38:35.014Z,10.3
2017-10-08T03:39:36.130Z,10.5
2017-10-08T03:40:36.857Z,10.8
2017-10-08T03:41:37.587Z,10.1
2017-10-08T03:42:38.317Z,10.9
2017-10-08T03:43:39.061Z,10.9
2017-10-08T03:44:40.202Z,11.0
2017-10-08T03:45:41.010Z,10.3
2017-10-08T03:46:41.737Z,10.6
2017-10-08T03:47:42.477Z,11.0
2017-10-08T03:48:43.211Z,11.3
2017-10-08T03:49:43.999Z,10.3
2017-10-08T03:50:44.771Z,11.6
2017-10-08T03:51:45.488Z,11.4
2017-10-08T03:52:46.221Z,10.5
2017-10-08T03:53:46.948Z,11.9
2017-10-08T03:54:48.078Z,12.2
2017-10-08T03:55:48.810Z,12.6
2017-10-08T03:56:49.552Z,12.9
2017-10-08T03:57:50.344Z,11.9
2017-10-08T03:58:51.132Z,10.6
2017-10-08T03:59:52.260Z,11.7
2017-10-08T04:00:52.991Z,11.2
2017-10-08T04:01:53.762Z,11.6
2017-10-08T04:02:54.501Z,11.4
2017-10-08T04:03:55.227Z,12.4
2017-10-08T04:04:56.261Z,11.4
2017-10-08T04:05:56.993Z,11.6
2017-10-08T04:06:57.769Z,11.9
2017-10-08T04:07:58.492Z,10.8
2017-10-08T04:08:59.222Z,11.1
2017-10-08T04:10:00.431Z,11.4
2017-10-08T04:11:01.158Z,11.5
2017-10-08T04:12:01.880Z,11.3
2017-10-08T04:13:02.671Z,11.1
2017-10-08T04:14:03.415Z,11.0
2017-10-08T04:15:04.241Z,11.7
2017-10-08T04:16:04.966Z,12.0
2017-10-08T04:17:05.712Z,11.2
2017-10-08T04:18:06.448Z,10.5
2017-10-08T04:19:07.242Z,10.0
2017-10-08T04:20:08.300Z,9.6
2017-10-08T04:21:09.022Z,10.4
2017-10-08T04:22:09.754Z,10.4
2017-10-08T04:23:10.475Z,11.2
2017-10-08T04:24:11.198Z,10.7
2017-10-08T04:25:12.321Z,10.3
2017-10-08T04:26:13.136Z,10.4
2017-10-08T04:27:13.908Z,11.4
2017-10-08T04:28:14.709Z,9.8
2017-10-08T04:29:15.511Z,10.3
2017-10-08T04:30:16.551Z,11.9
2017-10-08T04:31:17.347Z,11.2
2017-10-08T04:32:18.080Z,10.5
2017-10-08T04:33:18.821Z,9.8
2017-10-08T04:34:19.551Z,10.9
2017-10-08T04:35:20.336Z,10.5
2017-10-08T04:36:21.128Z,10.7
2017-10-08T04:37:21.861Z,10.8
2017-10-08T04:38:22.592Z,12.5
2017-10-08T04:39:23.318Z,10.6
2017-10-08T04:40:24.058Z,11.4
2017-10-08T04:41:24.793Z,11.5
2017-10-08T04:42:25.572Z,10.1
2017-10-08T04:43:26.313Z,10.0
2017-10-08T04:44:27.402Z,10.0
2017-10-08T04:45:28.224Z,10.1
2017-10-08T04:46:29.021Z,9.6
2017-10-08T04:47:29.755Z,9.7
2017-10-08T04:48:30.546Z,9.8
2017-10-08T04:49:31.744Z,10.0
2017-10-08T04:50:32.494Z,10.1
2017-10-08T04:51:33.270Z,9.5
2017-10-08T04:52:34.053Z,9.5
2017-10-08T04:53:34.824Z,9.9
2017-10-08T04:54:35.909Z,10.2
2017-10-08T04:55:36.717Z,10.4
2017-10-08T04:56:37.475Z,10.1
2017-10-08T04:57:38.202Z,11.0
2017-10-08T04:58:38.964Z,12.0
2017-10-08T04:59:39.985Z,10.5
2017-10-08T05:00:40.725Z,10.8
2017-10-08T05:01:41.444Z,12.1
2017-10-08T05:02:42.168Z,11.4
2017-10-08T05:03:42.900Z,11.1
2017-10-08T05:04:43.724Z,11.1
2017-10-08T05:05:44.511Z,11.9
2017-10-08T05:06:45.235Z,12.3
2017-10-08T05:07:46.049Z,12.3
2017-10-08T05:08:46.805Z,12.0
2017-10-08T05:09:47.871Z,13.1
2017-10-08T05:10:48.669Z,12.0
2017-10-08T05:11:49.390Z,11.7
2017-10-08T05:12:50.121Z,12.4
2017-10-08T05:13:50.933Z,12.0
2017-10-08T05:14:52.062Z,11.5
2017-10-08T05:15:52.799Z,11.7
2017-10-08T05:16:53.529Z,11.7
2017-10-08T05:17:54.259Z,11.6
2017-10-08T05:18:54.995Z,12.5
2017-10-08T05:19:56.139Z,10.8
2017-10-08T05:20:56.869Z,10.9
2017-10-08T05:21:57.658Z,10.9
2017-10-08T05:22:58.366Z,9.9
2017-10-08T05:23:59.094Z,10.5
2017-10-08T05:25:00.236Z,11.0
2017-10-08T05:26:00.958Z,10.7
2017-10-08T05:27:01.692Z,10.7
2017-10-08T05:28:02.488Z,11.1
2017-10-08T05:29:03.281Z,11.6
2017-10-08T05:30:04.458Z,11.1
2017-10-08T05:31:05.254Z,12.0
2017-10-08T05:32:06.070Z,10.7
2017-10-08T05:33:06.800Z,11.8
2017-10-08T05:34:07.611Z,12.3
2017-10-08T05:35:08.691Z,12.2
2017-10-08T05:36:09.445Z,12.5
2017-10-08T05:37:10.249Z,12.6
2017-10-08T05:38:11.053Z,11.8
2017-10-08T05:39:11.815Z,12.4
2017-10-08T05:40:12.809Z,11.5
2017-10-08T05:41:13.545Z,12.6
2017-10-08T05:42:14.282Z,11.6
2017-10-08T05:43:15.054Z,12.7
2017-10-08T05:44:15.788Z,11.6
2017-10-08T05:45:16.994Z,13.3
2017-10-08T05:46:17.810Z,11.2
2017-10-08T05:47:18.615Z,11.1
2017-10-08T05:48:19.363Z,11.2
2017-10-08T05:49:20.136Z,11.2
2017-10-08T05:50:21.227Z,11.2
2017-10-08T05:51:21.992Z,11.4
2017-10-08T05:52:22.788Z,11.7
2017-10-08T05:53:23.531Z,11.8
2017-10-08T05:54:24.314Z,10.7
2017-10-08T05:55:25.447Z,10.9
2017-10-08T05:56:26.191Z,11.8
2017-10-08T05:57:26.917Z,10.7
2017-10-08T05:58:27.743Z,11.2
2017-10-08T05:59:28.518Z,9.7
2017-10-08T06:00:29.594Z,10.5
2017-10-08T06:01:30.328Z,10.0
2017-10-08T06:02:31.110Z,10.1
2017-10-08T06:03:31.844Z,10.4
2017-10-08T06:04:32.569Z,9.8
2017-10-08T06:05:33.449Z,9.5
2017-10-08T06:06:34.238Z,9.6
2017-10-08T06:07:34.960Z,9.9
2017-10-08T06:08:35.690Z,9.9
2017-10-08T06:09:36.428Z,10.0
2017-10-08T06:10:37.269Z,9.5
2017-10-08T06:11:38.049Z,9.4
2017-10-08T06:12:38.798Z,9.0
2017-10-08T06:13:39.545Z,9.3
2017-10-08T06:14:40.297Z,9.2
2017-10-08T06:15:41.088Z,9.1
2017-10-08T06:16:41.816Z,9.3
2017-10-08T06:17:42.550Z,9.1
2017-10-08T06:18:43.364Z,9.0
2017-10-08T06:19:44.099Z,8.9
2017-10-08T06:20:45.300Z,9.6
2017-10-08T06:21:46.092Z,9.1
2017-10-08T06:22:46.893Z,9.1
2017-10-08T06:23:47.699Z,8.5
2017-10-08T06:24:48.432Z,8.7
2017-10-08T06:25:49.539Z,8.8
2017-10-08T06:26:50.300Z,8.2
2017-10-08T06:27:51.077Z,8.4
2017-10-08T06:28:51.889Z,8.1
2017-10-08T06:29:52.640Z,8.9
2017-10-08T06:30:53.788Z,9.0
2017-10-08T06:31:54.516Z,8.1
2017-10-08T06:32:55.319Z,9.2
2017-10-08T06:33:56.055Z,8.4
2017-10-08T06:34:56.776Z,9.6
2017-10-08T06:35:57.861Z,8.2
2017-10-08T06:36:58.596Z,8.4
2017-10-08T06:37:59.365Z,8.6
2017-10-08T06:39:00.239Z,8.9
2017-10-08T06:40:00.971Z,9.0
2017-10-08T06:41:02.272Z,8.3
2017-10-08T06:42:03.423Z,8.5
2017-10-08T06:43:04.462Z,8.5
2017-10-08T06:44:05.262Z,9.0
2017-10-08T06:45:05.985Z,9.4
2017-10-08T06:46:07.020Z,9.0
2017-10-08T06:47:07.841Z,8.6
2017-10-08T06:48:08.622Z,8.4
2017-10-08T06:49:09.344Z,8.5
2017-10-08T06:50:10.081Z,8.1
2017-10-08T06:51:10.827Z,8.4
2017-10-08T06:52:11.568Z,7.5
2017-10-08T06:53:12.311Z,5.3
2017-10-08T06:54:13.149Z,4.6
2017-10-08T06:55:13.893Z,4.4
2017-10-08T06:56:14.674Z,4.6
2017-10-08T06:57:15.419Z,4.5
2017-10-08T06:58:16.143Z,4.7
2017-10-08T06:59:16.880Z,3.9
2017-10-08T07:00:17.946Z,3.6
2017-10-08T07:01:18.675Z,3.6
2017-10-08T07:02:19.402Z,3.5
2017-10-08T07:03:20.135Z,3.4
2017-10-08T07:04:20.869Z,4.0
2017-10-08T07:05:22.055Z,4.3
2017-10-08T07:06:22.799Z,3.8
2017-10-08T07:07:23.611Z,4.2
2017-10-08T07:08:24.421Z,4.0
2017-10-08T07:09:25.150Z,3.9
2017-10-08T07:10:26.292Z,3.8
2017-10-08T07:11:27.091Z,3.3
2017-10-08T07:12:27.891Z,2.7
2017-10-08T07:13:28.675Z,3.5
2017-10-08T07:14:29.397Z,3.3
2017-10-08T07:15:30.181Z,2.8
2017-10-08T07:16:30.941Z,2.7
2017-10-08T07:17:31.721Z,2.7
2017-10-08T07:18:32.459Z,2.4
2017-10-08T07:19:33.244Z,2.6
2017-10-08T07:20:34.323Z,3.8
2017-10-08T07:21:35.110Z,2.3
2017-10-08T07:22:35.854Z,1.8
2017-10-08T07:23:36.611Z,3.1
2017-10-08T07:24:37.341Z,3.2
2017-10-08T07:25:38.473Z,3.4
2017-10-08T07:26:39.208Z,3.7
2017-10-08T07:27:39.942Z,3.6
2017-10-08T07:28:40.669Z,3.7
2017-10-08T07:29:41.416Z,2.9
2017-10-08T07:30:42.264Z,3.5
2017-10-08T07:31:43.000Z,3.7
2017-10-08T07:32:43.742Z,3.3
2017-10-08T07:33:44.509Z,2.3
2017-10-08T07:34:45.245Z,2.8
2017-10-08T07:35:46.476Z,4.0
2017-10-08T07:36:47.224Z,3.9
2017-10-08T07:37:48.001Z,3.7
2017-10-08T07:38:48.733Z,3.5
2017-10-08T07:39:49.542Z,3.0
2017-10-08T07:40:50.377Z,2.6
2017-10-08T07:41:51.136Z,2.7
2017-10-08T07:42:51.868Z,2.9
2017-10-08T07:43:52.614Z,3.2
2017-10-08T07:44:53.412Z,2.3
2017-10-08T07:45:54.516Z,2.3
2017-10-08T07:46:55.251Z,1.8
2017-10-08T07:47:55.989Z,2.4
2017-10-08T07:48:56.721Z,2.7
2017-10-08T07:49:57.458Z,3.1
2017-10-08T07:50:58.507Z,1.9
2017-10-08T07:51:59.273Z,2.4
2017-10-08T07:53:00.003Z,1.9
2017-10-08T07:54:00.728Z,2.4
2017-10-08T07:55:01.463Z,3.0
2017-10-08T07:56:02.712Z,4.0
2017-10-08T07:57:03.521Z,3.4
2017-10-08T07:58:04.248Z,2.8
2017-10-08T07:59:04.978Z,3.0
2017-10-08T08:00:05.727Z,2.9
2017-10-08T08:01:06.808Z,3.3
2017-10-08T08:02:07.572Z,3.4
2017-10-08T08:03:08.306Z,2.7
2017-10-08T08:04:09.042Z,2.6
2017-10-08T08:05:09.775Z,2.4
2017-10-08T08:06:10.762Z,2.4
2017-10-08T08:07:11.498Z,3.5
2017-10-08T08:08:12.313Z,2.7
2017-10-08T08:09:13.053Z,2.6
2017-10-08T08:10:13.804Z,2.9
2017-10-08T08:12:29.188Z,2.9
2017-10-08T08:13:29.929Z,3.2
2017-10-08T08:14:30.653Z,3.2
2017-10-08T08:15:31.383Z,3.0
2017-10-08T08:16:32.532Z,3.1
2017-10-08T08:17:33.285Z,3.2
2017-10-08T08:18:34.089Z,2.5
2017-10-08T08:19:34.829Z,2.4
2017-10-08T08:20:35.628Z,2.0
2017-10-08T08:21:36.462Z,2.6
2017-10-08T08:22:37.195Z,3.1
2017-10-08T08:23:37.929Z,2.8
2017-10-08T08:24:38.663Z,3.3
2017-10-08T08:25:39.452Z,2.7
2017-10-08T08:26:40.437Z,2.3
2017-10-08T08:27:41.255Z,3.1
2017-10-08T08:28:41.989Z,2.4
2017-10-08T08:29:42.732Z,2.4
2017-10-08T08:30:43.463Z,3.3
2017-10-08T08:31:44.263Z,2.5
2017-10-08T08:32:44.998Z,2.5
2017-10-08T08:33:45.775Z,2.5
2017-10-08T08:34:46.514Z,3.1
2017-10-08T08:35:47.250Z,2.4
2017-10-08T08:36:48.328Z,2.1
2017-10-08T08:37:49.086Z,1.6
2017-10-08T08:38:49.849Z,2.5
2017-10-08T08:39:50.592Z,2.8
2017-10-08T08:40:51.418Z,2.4
2017-10-08T08:41:52.600Z,2.2
2017-10-08T08:42:53.410Z,2.2
2017-10-08T08:43:54.145Z,2.1
2017-10-08T08:44:54.939Z,2.1
2017-10-08T08:45:55.680Z,1.9
2017-10-08T08:46:56.727Z,2.7
2017-10-08T08:47:57.462Z,2.1
2017-10-08T08:48:58.264Z,1.9
2017-10-08T08:49:58.989Z,2.2
2017-10-08T08:50:59.770Z,1.9
2017-10-08T08:52:00.960Z,2.2
2017-10-08T08:53:01.703Z,3.0
2017-10-08T08:54:02.429Z,1.9
2017-10-08T08:55:03.158Z,2.5
2017-10-08T08:56:03.901Z,3.1
2017-10-08T08:57:04.629Z,2.6
2017-10-08T08:58:05.368Z,2.0
2017-10-08T08:59:06.116Z,2.3
2017-10-08T09:00:07.210Z,2.4
2017-10-08T09:01:07.935Z,2.5
2017-10-08T09:02:08.672Z,2.8
2017-10-08T09:03:09.452Z,2.2
2017-10-08T09:04:10.195Z,2.4
2017-10-08T09:05:11.381Z,2.5
2017-10-08T09:06:12.124Z,1.9
2017-10-08T09:07:12.857Z,2.2
2017-10-08T09:08:13.673Z,2.5
2017-10-08T09:09:14.409Z,2.8
2017-10-08T09:10:16.018Z,1.9
2017-10-08T09:11:16.757Z,2.2
2017-10-08T09:12:17.545Z,2.4
2017-10-08T09:13:18.285Z,2.2
2017-10-08T09:14:19.100Z,4.1
2017-10-08T09:15:20.187Z,1.9
2017-10-08T09:16:20.988Z,2.6
2017-10-08T09:17:21.728Z,2.1
2017-10-08T09:18:22.497Z,2.0
2017-10-08T09:19:23.315Z,2.1
2017-10-08T09:20:24.886Z,1.9
2017-10-08T09:21:25.622Z,3.7
2017-10-08T09:22:26.394Z,2.5
2017-10-08T09:23:27.133Z,2.4
2017-10-08T09:24:27.941Z,1.7
2017-10-08T09:25:28.986Z,2.6
2017-10-08T09:26:29.786Z,1.8
2017-10-08T09:27:30.596Z,2.0
2017-10-08T09:28:31.330Z,1.9
2017-10-08T09:29:32.155Z,2.0
2017-10-08T09:30:32.966Z,2.9
2017-10-08T09:31:33.741Z,1.9
2017-10-08T09:32:34.480Z,2.0
2017-10-08T09:33:35.285Z,2.1
2017-10-08T09:34:36.030Z,1.7
2017-10-08T09:35:37.018Z,2.2
2017-10-08T09:36:37.809Z,2.1
2017-10-08T09:37:38.555Z,2.2
2017-10-08T09:38:39.340Z,2.0
2017-10-08T09:39:40.090Z,1.9
2017-10-08T09:40:41.241Z,1.6
2017-10-08T09:41:41.965Z,2.6
2017-10-08T09:42:42.690Z,2.0
2017-10-08T09:43:43.430Z,1.8
2017-10-08T09:44:44.223Z,2.1
2017-10-08T09:45:45.266Z,2.6
2017-10-08T09:46:46.060Z,1.9
2017-10-08T09:47:46.797Z,2.4
2017-10-08T09:48:47.566Z,2.0
2017-10-08T09:49:48.381Z,1.7
2017-10-08T09:50:49.428Z,2.0
2017-10-08T09:51:50.210Z,1.9
2017-10-08T09:52:51.025Z,2.0
2017-10-08T09:53:51.761Z,2.3
2017-10-08T09:54:52.514Z,2.0
2017-10-08T09:55:53.247Z,1.8
2017-10-08T09:56:54.059Z,2.0
2017-10-08T09:57:54.815Z,2.7
2017-10-08T09:58:55.660Z,1.8
2017-10-08T09:59:56.398Z,2.1
2017-10-08T10:00:57.138Z,2.2
2017-10-08T10:01:57.916Z,1.8
2017-10-08T10:02:58.730Z,1.5
2017-10-08T10:03:59.938Z,1.8
2017-10-08T10:05:00.733Z,2.2
2017-10-08T10:06:01.476Z,2.1
2017-10-08T10:07:02.287Z,2.5
2017-10-08T10:08:03.081Z,1.6
2017-10-08T10:09:04.125Z,1.6
2017-10-08T10:10:04.917Z,1.9
2017-10-08T10:11:05.736Z,1.7
2017-10-08T10:12:06.474Z,1.7
2017-10-08T10:13:07.207Z,2.0
2017-10-08T10:14:08.331Z,2.1
2017-10-08T10:15:09.062Z,2.1
2017-10-08T10:16:09.864Z,1.9
2017-10-08T10:17:10.612Z,2.1
2017-10-08T10:18:11.355Z,2.1
2017-10-08T10:19:12.493Z,1.8
2017-10-08T10:20:13.302Z,1.8
2017-10-08T10:21:14.077Z,1.7
2017-10-08T10:22:14.841Z,1.9
2017-10-08T10:23:15.584Z,1.6
2017-10-08T10:24:16.371Z,2.3
2017-10-08T10:25:17.193Z,1.7
2017-10-08T10:26:17.942Z,1.7
2017-10-08T10:27:18.743Z,1.6
2017-10-08T10:28:19.475Z,2.3
2017-10-08T10:29:20.571Z,2.1
2017-10-08T10:30:21.382Z,1.7
2017-10-08T10:31:22.129Z,1.9
2017-10-08T10:32:22.955Z,2.0
2017-10-08T10:33:23.699Z,1.8
2017-10-08T10:34:24.510Z,2.5
2017-10-08T10:35:25.605Z,2.4
2017-10-08T10:36:26.397Z,2.3
2017-10-08T10:37:27.198Z,2.1
2017-10-08T10:38:28.016Z,2.2
2017-10-08T10:39:28.817Z,2.4
2017-10-08T10:40:30.069Z,2.6
2017-10-08T10:41:30.808Z,2.3
2017-10-08T10:42:32.591Z,2.1
2017-10-08T10:43:34.647Z,2.9
2017-10-08T10:44:35.673Z,3.0
2017-10-08T10:45:36.829Z,2.2
2017-10-08T10:46:37.605Z,2.4
2017-10-08T10:47:38.430Z,2.5
2017-10-08T10:48:39.168Z,2.5
2017-10-08T10:49:39.977Z,2.4
2017-10-08T10:50:41.130Z,1.7
2017-10-08T10:51:41.897Z,2.3
2017-10-08T10:52:42.706Z,1.9
2017-10-08T10:53:43.489Z,1.8
2017-10-08T10:54:44.228Z,2.4
2017-10-08T10:55:44.972Z,1.5
2017-10-08T10:56:45.791Z,3.0
2017-10-08T10:57:46.875Z,1.8
2017-10-08T10:58:47.626Z,2.4
2017-10-08T10:59:48.404Z,1.9
2017-10-08T11:00:49.156Z,2.6
2017-10-08T11:01:49.895Z,2.1
2017-10-08T11:02:51.035Z,2.5
2017-10-08T11:03:51.851Z,2.2
2017-10-08T11:04:52.573Z,2.4
2017-10-08T11:05:53.400Z,2.0
2017-10-08T11:06:54.132Z,1.8
2017-10-08T11:07:54.968Z,2.1
2017-10-08T11:08:55.751Z,1.6
2017-10-08T11:09:56.554Z,1.9
2017-10-08T11:10:57.297Z,1.5
2017-10-08T11:11:58.042Z,1.7
2017-10-08T11:12:58.957Z,1.9
2017-10-08T11:13:59.742Z,1.9
2017-10-08T11:15:00.483Z,2.4
2017-10-08T11:16:01.229Z,2.3
2017-10-08T11:17:01.969Z,1.6
2017-10-08T11:18:02.898Z,1.8
2017-10-08T11:19:03.651Z,2.0
2017-10-08T11:20:04.487Z,1.7
2017-10-08T11:21:05.270Z,2.5
2017-10-08T11:22:06.002Z,2.3
2017-10-08T11:23:07.028Z,2.1
2017-10-08T11:24:07.837Z,2.3
2017-10-08T11:25:08.585Z,2.4
2017-10-08T11:26:09.363Z,2.2
2017-10-08T11:27:10.093Z,2.1
2017-10-08T11:28:10.826Z,2.3
2017-10-08T11:29:11.559Z,1.5
2017-10-08T11:30:12.379Z,2.0
2017-10-08T11:31:13.117Z,1.7
2017-10-08T11:32:13.862Z,1.9
2017-10-08T11:33:14.607Z,2.6
2017-10-08T11:34:15.856Z,1.9
2017-10-08T11:35:16.585Z,2.3
2017-10-08T11:36:17.326Z,2.4
2017-10-08T11:37:18.056Z,2.4
2017-10-08T11:38:18.783Z,2.4
2017-10-08T11:39:19.579Z,2.0
2017-10-08T11:40:20.383Z,2.0
2017-10-08T11:41:21.124Z,2.2
2017-10-08T11:42:21.846Z,2.2
2017-10-08T11:43:22.588Z,2.1
2017-10-08T11:44:23.671Z,1.5
2017-10-08T11:45:24.417Z,1.7
2017-10-08T11:46:25.233Z,2.0
2017-10-08T11:47:26.014Z,1.6
2017-10-08T11:48:26.745Z,1.5
2017-10-08T11:49:27.909Z,2.3
2017-10-08T11:50:28.648Z,2.0
2017-10-08T11:51:29.400Z,2.0
2017-10-08T11:52:30.139Z,2.1
2017-10-08T11:53:30.945Z,2.2
2017-10-08T11:54:31.853Z,1.9
2017-10-08T11:55:32.585Z,1.9
2017-10-08T11:56:33.385Z,2.0
2017-10-08T11:57:34.125Z,1.7
2017-10-08T11:58:34.862Z,1.5
2017-10-08T11:59:36.072Z,1.6
2017-10-08T12:00:36.817Z,2.0
2017-10-08T12:01:37.603Z,1.9
2017-10-08T12:02:38.346Z,2.0
2017-10-08T12:03:39.075Z,2.0
2017-10-08T12:04:40.191Z,2.3
2017-10-08T12:05:40.917Z,2.2
2017-10-08T12:06:41.710Z,1.9
2017-10-08T12:07:42.442Z,2.1
2017-10-08T12:08:43.174Z,2.1
2017-10-08T12:09:43.903Z,2.6
2017-10-08T12:10:44.725Z,1.9
2017-10-08T12:11:45.463Z,2.0
2017-10-08T12:12:46.203Z,2.0
2017-10-08T12:13:47.002Z,2.0
2017-10-08T12:14:47.745Z,2.5
2017-10-08T12:15:48.833Z,1.7
2017-10-08T12:16:49.572Z,1.9
2017-10-08T12:17:50.304Z,1.9
2017-10-08T12:18:51.052Z,2.1
2017-10-08T12:19:51.835Z,2.4
2017-10-08T12:20:52.731Z,2.2
2017-10-08T12:21:53.466Z,2.1
2017-10-08T12:22:54.265Z,1.9
2017-10-08T12:23:55.002Z,2.4
2017-10-08T12:24:55.735Z,2.3
2017-10-08T12:25:56.896Z,2.6
2017-10-08T12:26:57.681Z,2.0
2017-10-08T12:27:58.412Z,1.9
2017-10-08T12:28:59.220Z,2.6
2017-10-08T12:29:59.962Z,3.0
2017-10-08T12:31:01.141Z,1.9
2017-10-08T12:32:01.877Z,2.3
2017-10-08T12:33:02.652Z,2.7
2017-10-08T12:34:03.400Z,1.6
2017-10-08T12:35:04.124Z,2.0
2017-10-08T12:36:04.952Z,2.4
2017-10-08T12:37:05.729Z,1.9
2017-10-08T12:38:06.476Z,2.1
2017-10-08T12:39:07.282Z,2.7
2017-10-08T12:40:08.093Z,1.9
2017-10-08T12:41:09.210Z,2.1
2017-10-08T12:42:09.951Z,2.5
2017-10-08T12:43:10.733Z,2.7
2017-10-08T12:44:11.462Z,2.5
2017-10-08T12:45:12.189Z,3.1
2017-10-08T12:46:13.276Z,2.6
2017-10-08T12:47:14.066Z,2.0
2017-10-08T12:48:14.893Z,2.4
2017-10-08T12:49:15.643Z,2.3
2017-10-08T12:50:16.380Z,2.2
2017-10-08T12:51:17.515Z,2.3
2017-10-08T12:52:18.254Z,2.1
2017-10-08T12:53:19.031Z,2.5
2017-10-08T12:54:19.727Z,2.0
2017-10-08T12:55:20.529Z,2.2
2017-10-08T12:56:21.731Z,2.0
2017-10-08T12:57:22.465Z,3.2
2017-10-08T12:58:23.209Z,1.6
2017-10-08T12:59:23.938Z,2.5
2017-10-08T13:00:24.683Z,2.5
2017-10-08T13:01:25.886Z,2.4
2017-10-08T13:02:26.624Z,2.7
2017-10-08T13:03:28.155Z,2.2
2017-10-08T13:04:28.820Z,2.5
2017-10-08T13:05:29.699Z,2.3
2017-10-08T13:06:30.781Z,2.7
2017-10-08T13:07:31.581Z,2.4
2017-10-08T13:08:32.379Z,2.2
2017-10-08T13:09:33.170Z,1.9
2017-10-08T13:10:33.952Z,1.9
2017-10-08T13:11:34.754Z,1.9
2017-10-08T13:12:35.587Z,2.1
2017-10-08T13:13:36.402Z,2.4
2017-10-08T13:14:37.142Z,2.3
2017-10-08T13:15:37.956Z,2.6
2017-10-08T13:16:39.157Z,2.3
2017-10-08T13:17:39.872Z,2.3
2017-10-08T13:18:40.593Z,1.6
2017-10-08T13:19:41.340Z,2.6
2017-10-08T13:20:42.083Z,3.1
2017-10-08T13:21:43.167Z,2.8
2017-10-08T13:22:43.911Z,1.8
2017-10-08T13:23:44.712Z,2.3
2017-10-08T13:24:45.525Z,2.0
2017-10-08T13:25:46.301Z,2.2
2017-10-08T13:26:47.535Z,2.5
2017-10-08T13:27:48.266Z,2.0
2017-10-08T13:28:49.041Z,2.6
2017-10-08T13:29:49.854Z,2.4
2017-10-08T13:30:50.613Z,2.2
2017-10-08T13:31:51.696Z,2.2
2017-10-08T13:32:52.426Z,2.5
2017-10-08T13:33:53.227Z,2.3
2017-10-08T13:34:53.956Z,2.0
2017-10-08T13:35:54.692Z,1.9
2017-10-08T13:36:55.554Z,2.3
2017-10-08T13:37:56.366Z,2.1
2017-10-08T13:38:57.146Z,2.3
2017-10-08T13:39:57.899Z,2.0
2017-10-08T13:40:58.697Z,2.8
2017-10-08T13:41:59.442Z,2.6
2017-10-08T13:43:00.210Z,2.0
2017-10-08T13:44:00.981Z,2.6
2017-10-08T13:45:01.792Z,2.5
2017-10-08T13:46:02.879Z,1.9
2017-10-08T13:47:03.621Z,2.1
2017-10-08T13:48:04.488Z,2.0
2017-10-08T13:49:05.296Z,1.5
2017-10-08T13:50:06.028Z,2.3